Marco Polo — BR2031 — position and weather

sailwx.info

Track history (hours):
 
Tides and Currents Weather Stations Pressure Air Temp Water Temp Dewpoint Dewpoint Depression Visibility Wind Speed Wind Dir Waves Ship Positions

Marco Polo

Last reported at 2014-Aug-22 11:20 UTC. Time now 2014-Aug-22 11:51 UTC.
Position N 24°25' E 118°17'.

Length 32 m.

MMSI: 416000256.

Date/timePositionNaut miles runAvg speedWind from/ knotsBaromVisibWave heightAir tempDewpointWater temp
2014-Aug-22 11:20N 24°25' E 118°17'0 0.0
2014-Aug-22 10:33N 24°25' E 118°17'0 0.3
2014-Aug-22 09:32N 24°25' E 118°17'9 9.0
2014-Aug-22 08:32N 24°32' E 118°11'9 8.5
2014-Aug-22 07:29N 24°25' E 118°17'0 0.0
2014-Aug-22 06:21N 24°25' E 118°17'0 0.1
2014-Aug-22 05:33N 24°25' E 118°17'0 0.0
2014-Aug-22 04:32N 24°25' E 118°17'7 7.2
2014-Aug-22 03:32N 24°31' E 118°13'1 1.4
2014-Aug-22 02:33N 24°32' E 118°12'8 8.4
2014-Aug-22 01:33N 24°25' E 118°17'0 0.1
2014-Aug-22 00:33N 24°25' E 118°17'0 0.0
2014-Aug-21 23:32N 24°25' E 118°17'0 0.0
2014-Aug-21 22:33N 24°25' E 118°17'0 0.0
2014-Aug-21 21:32N 24°25' E 118°17'0 0.0
2014-Aug-21 20:33N 24°25' E 118°17'0 0.0
2014-Aug-21 19:32N 24°25' E 118°17'0 0.0
2014-Aug-21 18:33N 24°25' E 118°17'0 0.0
2014-Aug-21 17:33N 24°25' E 118°17'0 0.0
2014-Aug-21 16:33N 24°25' E 118°17'0 0.0
2014-Aug-21 15:33N 24°25' E 118°17'0 0.0
2014-Aug-21 10:30N 24°25' E 118°17'0 0.0
2014-Aug-21 09:33N 24°25' E 118°17'0 0.0
2014-Aug-21 07:20N 24°25' E 118°17'8 9.9
2014-Aug-21 06:33N 24°32' E 118°13'1 0.5
2014-Aug-21 05:33N 24°31' E 118°13'7 7.2
2014-Aug-21 04:33N 24°25' E 118°17'0 0.5
2014-Aug-21 03:33N 24°25' E 118°17'2 2.1
2014-Aug-21 02:33N 24°27' E 118°17'6 6.2
2014-Aug-21 01:33N 24°32' E 118°12'8 1.2
2014-Aug-20 18:32N 24°25' E 118°17'0 0.0
2014-Aug-20 17:18N 24°25' E 118°17'0 0.0
2014-Aug-20 16:16N 24°25' E 118°17'0 0.0
2014-Aug-20 15:32N 24°25' E 118°17'0 0.0
2014-Aug-20 10:33N 24°25' E 118°17'9 8.9
2014-Aug-20 09:33N 24°32' E 118°11'9 6.2
2014-Aug-20 08:07N 24°25' E 118°17'0 0.2
2014-Aug-20 06:27N 24°25' E 118°17'8 9.2
2014-Aug-20 05:33N 24°32' E 118°12'1 1.4
2014-Aug-20 04:33N 24°31' E 118°13'7 3.4
2014-Aug-20 02:25N 24°25' E 118°17'0 0.0
2014-Aug-20 01:27N 24°25' E 118°17'0 0.0
2014-Aug-20 00:33N 24°25' E 118°17'0 0.0
2014-Aug-19 23:33N 24°25' E 118°17'0 0.0
2014-Aug-19 22:33N 24°25' E 118°17'0 0.0
2014-Aug-19 21:33N 24°25' E 118°17'0 0.0
2014-Aug-19 20:32N 24°25' E 118°17'0 0.0
2014-Aug-19 19:30N 24°25' E 118°17'0 0.0
2014-Aug-19 18:33N 24°25' E 118°17'0 0.0
2014-Aug-19 17:32N 24°25' E 118°17'0 0.0
2014-Aug-19 16:32N 24°25' E 118°17'0 0.0
2014-Aug-19 15:32N 24°25' E 118°17'0 0.0
2014-Aug-19 10:33N 24°25' E 118°17'0 0.0
2014-Aug-19 09:33N 24°25' E 118°17'0 0.0
2014-Aug-19 08:31N 24°25' E 118°17'0 0.0
2014-Aug-18 20:04N 24°25' E 118°17'0 0.0
2014-Aug-18 19:33N 24°25' E 118°17'0 0.0
2014-Aug-18 18:33N 24°25' E 118°17'0 0.0
2014-Aug-18 15:31N 24°25' E 118°17'0 0.0
2014-Aug-18 13:33N 24°25' E 118°17'0 0.0
2014-Aug-18 12:33N 24°25' E 118°17'0 0.0
2014-Aug-18 11:33N 24°25' E 118°17'7 6.9
2014-Aug-18 10:33N 24°31' E 118°13'6 6.5
2014-Aug-18 09:33N 24°25' E 118°17'0 0.4
2014-Aug-18 08:33N 24°25' E 118°17'0 0.1
2014-Aug-18 07:33N 24°25' E 118°17'7 7.1
2014-Aug-18 06:33N 24°31' E 118°13'2 2.2
2014-Aug-18 05:33N 24°32' E 118°11'9 8.7
2014-Aug-18 04:32N 24°25' E 118°17'0 0.5
2014-Aug-18 03:30N 24°25' E 118°17'0 0.0
2014-Aug-17 10:19N 24°25' E 118°17'2 2.7
2014-Aug-17 09:33N 24°27' E 118°17'7 7.0
2014-Aug-17 08:33N 24°32' E 118°11'9 8.7
2014-Aug-17 07:32N 24°25' E 118°17'0 0.0
2014-Aug-17 06:05N 24°25' E 118°17'0 0.8
2014-Aug-17 05:33N 24°25' E 118°17'0 0.0
2014-Aug-17 04:33N 24°25' E 118°17'7 7.0
2014-Aug-17 03:33N 24°31' E 118°13'1 0.5
2014-Aug-17 02:33N 24°32' E 118°13'8 7.7
2014-Aug-17 01:32N 24°25' E 118°17'0 0.1
2014-Aug-17 00:33N 24°25' E 118°17'0 0.0
2014-Aug-16 23:33N 24°25' E 118°17'0 0.0
2014-Aug-16 22:33N 24°25' E 118°17'0 0.0
2014-Aug-16 21:33N 24°25' E 118°17'0 0.0
2014-Aug-16 20:33N 24°25' E 118°17'0 0.0
2014-Aug-16 19:33N 24°25' E 118°17'0 0.0
2014-Aug-16 18:33N 24°25' E 118°17'0 0.0
2014-Aug-16 17:33N 24°25' E 118°17'0 0.0
2014-Aug-16 16:32N 24°25' E 118°17'0 0.0
2014-Aug-16 15:33N 24°25' E 118°17'0 0.0
2014-Aug-16 11:05N 24°25' E 118°17'0 0.0
2014-Aug-16 10:33N 24°25' E 118°17'0 0.0
2014-Aug-16 09:33N 24°25' E 118°17'0 0.0
2014-Aug-16 08:33N 24°25' E 118°17'0 0.0
2014-Aug-16 07:33N 24°25' E 118°17'8 7.8
2014-Aug-16 06:33N 24°32' E 118°13'1 1.3
2014-Aug-16 05:33N 24°32' E 118°12'9 6.0
2014-Aug-16 04:05N 24°25' E 118°17'0 0.1
2014-Aug-16 03:33N 24°25' E 118°17'2 1.7
2014-Aug-16 02:33N 24°27' E 118°17'6 6.3
2014-Aug-16 01:33N 24°32' E 118°13'8 7.3
2014-Aug-16 00:30N 24°25' E 118°17'0 0.0
2014-Aug-15 23:32N 24°25' E 118°17'0 0.0
2014-Aug-15 22:33N 24°25' E 118°17'0 0.0
2014-Aug-15 21:21N 24°25' E 118°17'0 0.0
2014-Aug-15 20:32N 24°25' E 118°17'0 0.0
2014-Aug-15 19:29N 24°25' E 118°17'0 0.0
2014-Aug-15 18:30N 24°25' E 118°17'0 0.0
2014-Aug-15 17:25N 24°25' E 118°17'0 0.0
2014-Aug-15 16:32N 24°25' E 118°17'0 0.0
2014-Aug-15 15:30N 24°25' E 118°17'1 0.2
2014-Aug-15 10:34N 24°26' E 118°17'8 8.3
2014-Aug-15 09:33N 24°32' E 118°11'9 8.7
2014-Aug-15 08:34N 24°25' E 118°17'0 0.3
2014-Aug-15 07:33N 24°25' E 118°17'0 0.0
2014-Aug-15 06:33N 24°25' E 118°17'0 0.0
2014-Aug-15 05:33N 24°25' E 118°17'0 0.5
2014-Aug-15 04:33N 24°25' E 118°17'8 7.5
2014-Aug-15 03:33N 24°31' E 118°13'1 0.8
2014-Aug-15 02:33N 24°32' E 118°12'8 7.3
2014-Aug-15 01:25N 24°25' E 118°17'0 0.1
2014-Aug-15 00:32N 24°25' E 118°17'0 0.0
2014-Aug-14 23:33N 24°25' E 118°17'0 0.0
2014-Aug-14 22:33N 24°25' E 118°17'0 0.0
2014-Aug-14 21:34N 24°25' E 118°17'0 0.0
2014-Aug-14 20:33N 24°25' E 118°17'0 0.0
2014-Aug-14 19:33N 24°25' E 118°17'0 0.0
2014-Aug-14 18:33N 24°25' E 118°17'0 0.0
2014-Aug-14 17:33N 24°25' E 118°17'0 0.0
2014-Aug-14 16:34N 24°25' E 118°17'0 0.0
2014-Aug-14 15:33N 24°25' E 118°17'0 0.0
2014-Aug-14 10:31N 24°25' E 118°17'0 0.0
2014-Aug-14 09:32N 24°25' E 118°17'0 0.0
2014-Aug-14 08:33N 24°25' E 118°17'7 7.1
2014-Aug-14 07:34N 24°31' E 118°13'2 2.1
2014-Aug-14 06:33N 24°32' E 118°11'9 8.8
2014-Aug-14 05:33N 24°25' E 118°17'0 0.1
2014-Aug-14 04:33N 24°25' E 118°17'0 0.0
2014-Aug-14 03:33N 24°25' E 118°17'0 0.0
2014-Aug-14 02:30N 24°25' E 118°17'1 1.5
2014-Aug-14 01:33N 24°26' E 118°17'7 6.7
2014-Aug-14 00:33N 24°32' E 118°12'8 7.8
2014-Aug-13 23:32N 24°25' E 118°17'0 0.0
2014-Aug-13 22:33N 24°25' E 118°17'0 0.0
2014-Aug-13 21:33N 24°25' E 118°17'0 0.0
2014-Aug-13 20:33N 24°25' E 118°17'0 0.0
2014-Aug-13 19:32N 24°25' E 118°17'0 0.0
2014-Aug-13 18:33N 24°25' E 118°17'0 0.0
2014-Aug-13 17:33N 24°25' E 118°17'0 0.0
2014-Aug-13 16:33N 24°25' E 118°17'0 0.0
2014-Aug-13 15:32N 24°25' E 118°17'0 0.0
2014-Aug-13 14:33N 24°25' E 118°17'0 0.0
2014-Aug-13 13:21N 24°25' E 118°17'0 0.0
2014-Aug-13 12:26N 24°25' E 118°17'0 0.0
2014-Aug-13 11:31N 24°25' E 118°17'7 7.3
2014-Aug-13 10:33N 24°31' E 118°13'7 6.8
2014-Aug-13 09:32N 24°25' E 118°17'0 0.3
2014-Aug-13 08:33N 24°25' E 118°17'0 0.3
2014-Aug-13 07:33N 24°25' E 118°18'0 0.0
2014-Aug-13 06:33N 24°25' E 118°18'0 0.4
2014-Aug-13 05:33N 24°25' E 118°17'0 0.0
2014-Aug-13 04:33N 24°25' E 118°17'0 0.0
2014-Aug-13 03:32N 24°25' E 118°17'0 0.0
2014-Aug-13 02:33N 24°25' E 118°17'0 0.0
2014-Aug-12 18:23N 24°25' E 118°17'0 0.0
2014-Aug-12 17:33N 24°25' E 118°17'0 0.0
2014-Aug-12 16:29N 24°25' E 118°17'  
Track history (hours):
 
Tides and Currents Weather Stations Pressure Air Temp Water Temp Dewpoint Dewpoint Depression Visibility Wind Speed Wind Dir Waves Ship Positions

Marco Polo

Last reported at 2014-Aug-22 11:20 UTC. Time now 2014-Aug-22 11:51 UTC.
Position N 24°25' E 118°17'.

Length 32 m.

MMSI: 416000256.

Date/timePositionNaut miles runAvg speedWind from/ knotsBaromVisibWave heightAir tempDewpointWater temp
2014-Aug-22 11:20N 24°25' E 118°17'0 0.0
2014-Aug-22 10:33N 24°25' E 118°17'0 0.3
2014-Aug-22 09:32N 24°25' E 118°17'9 9.0
2014-Aug-22 08:32N 24°32' E 118°11'9 8.5
2014-Aug-22 07:29N 24°25' E 118°17'0 0.0
2014-Aug-22 06:21N 24°25' E 118°17'0 0.1
2014-Aug-22 05:33N 24°25' E 118°17'0 0.0
2014-Aug-22 04:32N 24°25' E 118°17'7 7.2
2014-Aug-22 03:32N 24°31' E 118°13'1 1.4
2014-Aug-22 02:33N 24°32' E 118°12'8 8.4
2014-Aug-22 01:33N 24°25' E 118°17'0 0.1
2014-Aug-22 00:33N 24°25' E 118°17'0 0.0
2014-Aug-21 23:32N 24°25' E 118°17'0 0.0
2014-Aug-21 22:33N 24°25' E 118°17'0 0.0
2014-Aug-21 21:32N 24°25' E 118°17'0 0.0
2014-Aug-21 20:33N 24°25' E 118°17'0 0.0
2014-Aug-21 19:32N 24°25' E 118°17'0 0.0
2014-Aug-21 18:33N 24°25' E 118°17'0 0.0
2014-Aug-21 17:33N 24°25' E 118°17'0 0.0
2014-Aug-21 16:33N 24°25' E 118°17'0 0.0
2014-Aug-21 15:33N 24°25' E 118°17'0 0.0
2014-Aug-21 10:30N 24°25' E 118°17'0 0.0
2014-Aug-21 09:33N 24°25' E 118°17'0 0.0
2014-Aug-21 07:20N 24°25' E 118°17'8 9.9
2014-Aug-21 06:33N 24°32' E 118°13'1 0.5
2014-Aug-21 05:33N 24°31' E 118°13'7 7.2
2014-Aug-21 04:33N 24°25' E 118°17'0 0.5
2014-Aug-21 03:33N 24°25' E 118°17'2 2.1
2014-Aug-21 02:33N 24°27' E 118°17'6 6.2
2014-Aug-21 01:33N 24°32' E 118°12'8 1.2
2014-Aug-20 18:32N 24°25' E 118°17'0 0.0
2014-Aug-20 17:18N 24°25' E 118°17'0 0.0
2014-Aug-20 16:16N 24°25' E 118°17'0 0.0
2014-Aug-20 15:32N 24°25' E 118°17'0 0.0
2014-Aug-20 10:33N 24°25' E 118°17'9 8.9
2014-Aug-20 09:33N 24°32' E 118°11'9 6.2
2014-Aug-20 08:07N 24°25' E 118°17'0 0.2
2014-Aug-20 06:27N 24°25' E 118°17'8 9.2
2014-Aug-20 05:33N 24°32' E 118°12'1 1.4
2014-Aug-20 04:33N 24°31' E 118°13'7 3.4
2014-Aug-20 02:25N 24°25' E 118°17'0 0.0
2014-Aug-20 01:27N 24°25' E 118°17'0 0.0
2014-Aug-20 00:33N 24°25' E 118°17'0 0.0
2014-Aug-19 23:33N 24°25' E 118°17'0 0.0
2014-Aug-19 22:33N 24°25' E 118°17'0 0.0
2014-Aug-19 21:33N 24°25' E 118°17'0 0.0
2014-Aug-19 20:32N 24°25' E 118°17'0 0.0
2014-Aug-19 19:30N 24°25' E 118°17'0 0.0
2014-Aug-19 18:33N 24°25' E 118°17'0 0.0
2014-Aug-19 17:32N 24°25' E 118°17'0 0.0
2014-Aug-19 16:32N 24°25' E 118°17'0 0.0
2014-Aug-19 15:32N 24°25' E 118°17'0 0.0
2014-Aug-19 10:33N 24°25' E 118°17'0 0.0
2014-Aug-19 09:33N 24°25' E 118°17'0 0.0
2014-Aug-19 08:31N 24°25' E 118°17'0 0.0
2014-Aug-18 20:04N 24°25' E 118°17'0 0.0
2014-Aug-18 19:33N 24°25' E 118°17'0 0.0
2014-Aug-18 18:33N 24°25' E 118°17'0 0.0
2014-Aug-18 15:31N 24°25' E 118°17'0 0.0
2014-Aug-18 13:33N 24°25' E 118°17'0 0.0
2014-Aug-18 12:33N 24°25' E 118°17'0 0.0
2014-Aug-18 11:33N 24°25' E 118°17'7 6.9
2014-Aug-18 10:33N 24°31' E 118°13'6 6.5
2014-Aug-18 09:33N 24°25' E 118°17'0 0.4
2014-Aug-18 08:33N 24°25' E 118°17'0 0.1
2014-Aug-18 07:33N 24°25' E 118°17'7 7.1
2014-Aug-18 06:33N 24°31' E 118°13'2 2.2
2014-Aug-18 05:33N 24°32' E 118°11'9 8.7
2014-Aug-18 04:32N 24°25' E 118°17'0 0.5
2014-Aug-18 03:30N 24°25' E 118°17'0 0.0
2014-Aug-17 10:19N 24°25' E 118°17'2 2.7
2014-Aug-17 09:33N 24°27' E 118°17'7 7.0
2014-Aug-17 08:33N 24°32' E 118°11'9 8.7
2014-Aug-17 07:32N 24°25' E 118°17'0 0.0
2014-Aug-17 06:05N 24°25' E 118°17'0 0.8
2014-Aug-17 05:33N 24°25' E 118°17'0 0.0
2014-Aug-17 04:33N 24°25' E 118°17'7 7.0
2014-Aug-17 03:33N 24°31' E 118°13'1 0.5
2014-Aug-17 02:33N 24°32' E 118°13'8 7.7
2014-Aug-17 01:32N 24°25' E 118°17'0 0.1
2014-Aug-17 00:33N 24°25' E 118°17'0 0.0
2014-Aug-16 23:33N 24°25' E 118°17'0 0.0
2014-Aug-16 22:33N 24°25' E 118°17'0 0.0
2014-Aug-16 21:33N 24°25' E 118°17'0 0.0
2014-Aug-16 20:33N 24°25' E 118°17'0 0.0
2014-Aug-16 19:33N 24°25' E 118°17'0 0.0
2014-Aug-16 18:33N 24°25' E 118°17'0 0.0
2014-Aug-16 17:33N 24°25' E 118°17'0 0.0
2014-Aug-16 16:32N 24°25' E 118°17'0 0.0
2014-Aug-16 15:33N 24°25' E 118°17'0 0.0
2014-Aug-16 11:05N 24°25' E 118°17'0 0.0
2014-Aug-16 10:33N 24°25' E 118°17'0 0.0
2014-Aug-16 09:33N 24°25' E 118°17'0 0.0
2014-Aug-16 08:33N 24°25' E 118°17'0 0.0
2014-Aug-16 07:33N 24°25' E 118°17'8 7.8
2014-Aug-16 06:33N 24°32' E 118°13'1 1.3
2014-Aug-16 05:33N 24°32' E 118°12'9 6.0
2014-Aug-16 04:05N 24°25' E 118°17'0 0.1
2014-Aug-16 03:33N 24°25' E 118°17'2 1.7
2014-Aug-16 02:33N 24°27' E 118°17'6 6.3
2014-Aug-16 01:33N 24°32' E 118°13'8 7.3
2014-Aug-16 00:30N 24°25' E 118°17'0 0.0
2014-Aug-15 23:32N 24°25' E 118°17'0 0.0
2014-Aug-15 22:33N 24°25' E 118°17'0 0.0
2014-Aug-15 21:21N 24°25' E 118°17'0 0.0
2014-Aug-15 20:32N 24°25' E 118°17'0 0.0
2014-Aug-15 19:29N 24°25' E 118°17'0 0.0
2014-Aug-15 18:30N 24°25' E 118°17'0 0.0
2014-Aug-15 17:25N 24°25' E 118°17'0 0.0
2014-Aug-15 16:32N 24°25' E 118°17'0 0.0
2014-Aug-15 15:30N 24°25' E 118°17'1 0.2
2014-Aug-15 10:34N 24°26' E 118°17'8 8.3
2014-Aug-15 09:33N 24°32' E 118°11'9 8.7
2014-Aug-15 08:34N 24°25' E 118°17'0 0.3
2014-Aug-15 07:33N 24°25' E 118°17'0 0.0
2014-Aug-15 06:33N 24°25' E 118°17'0 0.0
2014-Aug-15 05:33N 24°25' E 118°17'0 0.5
2014-Aug-15 04:33N 24°25' E 118°17'8 7.5
2014-Aug-15 03:33N 24°31' E 118°13'1 0.8
2014-Aug-15 02:33N 24°32' E 118°12'8 7.3
2014-Aug-15 01:25N 24°25' E 118°17'0 0.1
2014-Aug-15 00:32N 24°25' E 118°17'0 0.0
2014-Aug-14 23:33N 24°25' E 118°17'0 0.0
2014-Aug-14 22:33N 24°25' E 118°17'0 0.0
2014-Aug-14 21:34N 24°25' E 118°17'0 0.0
2014-Aug-14 20:33N 24°25' E 118°17'0 0.0
2014-Aug-14 19:33N 24°25' E 118°17'0 0.0
2014-Aug-14 18:33N 24°25' E 118°17'0 0.0
2014-Aug-14 17:33N 24°25' E 118°17'0 0.0
2014-Aug-14 16:34N 24°25' E 118°17'0 0.0
2014-Aug-14 15:33N 24°25' E 118°17'0 0.0
2014-Aug-14 10:31N 24°25' E 118°17'0 0.0
2014-Aug-14 09:32N 24°25' E 118°17'0 0.0
2014-Aug-14 08:33N 24°25' E 118°17'7 7.1
2014-Aug-14 07:34N 24°31' E 118°13'2 2.1
2014-Aug-14 06:33N 24°32' E 118°11'9 8.8
2014-Aug-14 05:33N 24°25' E 118°17'0 0.1
2014-Aug-14 04:33N 24°25' E 118°17'0 0.0
2014-Aug-14 03:33N 24°25' E 118°17'0 0.0
2014-Aug-14 02:30N 24°25' E 118°17'1 1.5
2014-Aug-14 01:33N 24°26' E 118°17'7 6.7
2014-Aug-14 00:33N 24°32' E 118°12'8 7.8
2014-Aug-13 23:32N 24°25' E 118°17'0 0.0
2014-Aug-13 22:33N 24°25' E 118°17'0 0.0
2014-Aug-13 21:33N 24°25' E 118°17'0 0.0
2014-Aug-13 20:33N 24°25' E 118°17'0 0.0
2014-Aug-13 19:32N 24°25' E 118°17'0 0.0
2014-Aug-13 18:33N 24°25' E 118°17'0 0.0
2014-Aug-13 17:33N 24°25' E 118°17'0 0.0
2014-Aug-13 16:33N 24°25' E 118°17'0 0.0
2014-Aug-13 15:32N 24°25' E 118°17'0 0.0
2014-Aug-13 14:33N 24°25' E 118°17'0 0.0
2014-Aug-13 13:21N 24°25' E 118°17'0 0.0
2014-Aug-13 12:26N 24°25' E 118°17'0 0.0
2014-Aug-13 11:31N 24°25' E 118°17'7 7.3
2014-Aug-13 10:33N 24°31' E 118°13'7 6.8
2014-Aug-13 09:32N 24°25' E 118°17'0 0.3
2014-Aug-13 08:33N 24°25' E 118°17'0 0.3
2014-Aug-13 07:33N 24°25' E 118°18'0 0.0
2014-Aug-13 06:33N 24°25' E 118°18'0 0.4
2014-Aug-13 05:33N 24°25' E 118°17'0 0.0
2014-Aug-13 04:33N 24°25' E 118°17'0 0.0
2014-Aug-13 03:32N 24°25' E 118°17'0 0.0
2014-Aug-13 02:33N 24°25' E 118°17'0 0.0
2014-Aug-12 18:23N 24°25' E 118°17'0 0.0
2014-Aug-12 17:33N 24°25' E 118°17'0 0.0
2014-Aug-12 16:29N 24°25' E 118°17'  

Dump ship's entire track history